Jordans Store, Texas
Current Conditions -  °F | °C
As of 2:15 PM on Sunday 25 Jan 2015 (Local Time) from KOCH Reporting Station
Clear Clear  
Wind Chill: 19°   Ceiling: Unl
Heat Index: 19°   Visibility: 10mi
Dew Point:   Wind: 20mph
Humidity: 32%   Direction: 290°WNW
Pressure: 29.95"   Gusts: 24mph
Location:  31.7022°N, 93.9592°W
Report Text: KOCH 252015Z 29017G21KT 10SM CLR 19/02 A2995 RMK AO1
Loading
Personal Weather Stations






























Interactive Weather Map New forecast layout! Learn more

10-Day Weather Forecast

Advertisements
Track Severe Weather on mobile